Time;durP1;ratioP1;P1;durP2;ratioP2;P2;SDS_P1;SDS_P2;PMS_P1;PMS_P2;Temp;Humidity;BMP_temperature;BMP_pressure;BME280_temperature;BME280_humidity;BME280_pressure;Samples;Min_cycle;Max_cycle;Signal;HPM_P1;HPM_P2
2024/03/14 00:01:06;;;;;;;;;;;;;;;21.66;39.71;100528.55;103157;1301;61447;-80
2024/03/14 00:03:33;;;;;;;;;;;;;;;21.67;39.63;100521.73;103253;1295;61404;-80
2024/03/14 00:06:01;;;;;;;;;;;;;;;21.67;39.69;100522.63;103331;1296;72585;-80
2024/03/14 00:08:27;;;;;;;;;;;;;;;21.67;39.65;100518.10;103049;1298;61407;-80
2024/03/14 00:10:54;;;;;;;;;;;;;;;21.66;39.64;100515.84;103153;1301;61413;-80
2024/03/14 00:13:20;;;;;;;;;;;;;;;21.67;39.56;100513.63;103311;1301;61285;-80
2024/03/14 00:15:46;;;;;;;;;;;;;;;21.67;39.59;100513.10;103024;1300;61449;-80
2024/03/14 00:18:11;;;;;;;;;;;;;;;21.67;39.67;100512.02;103179;1296;61772;-80
2024/03/14 00:20:39;;;;;;;;;;;;;;;21.67;39.53;100511.52;103300;1302;61417;-79
2024/03/14 00:23:05;;;;;;;;;;;;;;;21.67;39.55;100509.67;103258;1294;61404;-79
2024/03/14 00:25:30;;;;;;;;;;;;;;;21.68;39.71;100509.13;103249;1294;61338;-79
2024/03/14 00:27:56;;;;;;;;;;;;;;;21.68;39.53;100503.21;103036;1307;63436;-79
2024/03/14 00:30:21;;;;;;;;;;;;;;;21.68;39.49;100499.99;103058;1301;74397;-79
2024/03/14 00:32:47;;;;;;;;;;;;;;;21.67;39.46;100499.81;103293;1300;61449;-79
2024/03/14 00:35:13;;;;;;;;;;;;;;;21.68;39.41;100496.60;103067;1301;61358;-79
2024/03/14 00:37:39;;;;;;;;;;;;;;;21.67;39.42;100494.27;105880;1294;58533;-80
2024/03/14 00:40:08;;;;;;;;;;;;;;;21.68;39.49;100493.71;105152;1298;61253;-79
2024/03/14 00:42:34;;;;;;;;;;;;;;;21.68;39.44;100494.38;103714;1299;61387;-79
2024/03/14 00:45:00;;;;;;;;;;;;;;;21.69;39.50;100500.23;102961;1294;61388;-79
2024/03/14 00:47:26;;;;;;;;;;;;;;;21.69;39.46;100497.16;103393;1296;61407;-80
2024/03/14 00:49:53;;;;;;;;;;;;;;;21.70;39.53;100497.48;103223;1299;61245;-80
2024/03/14 00:52:19;;;;;;;;;;;;;;;21.70;39.50;100497.82;103203;1301;61848;-79
2024/03/14 00:54:44;;;;;;;;;;;;;;;21.70;39.31;100499.25;103171;1298;61333;-79
2024/03/14 00:57:10;;;;;;;;;;;;;;;21.70;39.29;100497.47;103058;1298;61560;-79
2024/03/14 00:59:36;;;;;;;;;;;;;;;21.69;39.31;100494.27;103089;1296;61446;-79
2024/03/14 01:02:02;;;;;;;;;;;;;;;21.70;39.38;100494.45;103243;1297;74521;-80
2024/03/14 01:04:29;;;;;;;;;;;;;;;21.69;39.29;100492.30;103290;1300;61323;-80
2024/03/14 01:06:54;;;;;;;;;;;;;;;21.69;39.43;100491.82;103210;1294;62106;-81
2024/03/14 01:09:25;;;;;;;;;;;;;;;21.69;39.31;100497.19;103230;1295;61332;-81
2024/03/14 01:11:54;;;;;;;;;;;;;;;21.69;39.41;100499.01;102997;1298;74767;-80
2024/03/14 01:14:22;;;;;;;;;;;;;;;21.69;39.29;100501.12;104670;1299;61294;-80
2024/03/14 01:16:51;;;;;;;;;;;;;;;21.69;39.31;100501.34;103187;1295;61333;-80
2024/03/14 01:19:17;;;;;;;;;;;;;;;21.69;39.26;100503.83;103377;1298;72547;-81
2024/03/14 01:21:43;;;;;;;;;;;;;;;21.69;39.10;100502.90;103287;1300;63019;-80
2024/03/14 01:24:10;;;;;;;;;;;;;;;21.69;39.28;100506.32;103129;1295;61377;-80
2024/03/14 01:26:35;;;;;;;;;;;;;;;21.69;39.22;100506.86;103019;1295;61330;-81
2024/03/14 01:29:01;;;;;;;;;;;;;;;21.69;39.16;100504.56;103407;1298;61472;-80
2024/03/14 01:31:27;;;;;;;;;;;;;;;21.69;39.24;100508.15;103255;1298;61430;-80
2024/03/14 01:33:52;;;;;;;;;;;;;;;21.69;39.13;100507.42;103329;1294;61400;-80
2024/03/14 01:36:20;;;;;;;;;;;;;;;21.69;39.17;100508.27;103236;1299;61311;-80
2024/03/14 01:38:46;;;;;;;;;;;;;;;21.69;39.04;100505.61;103086;1300;61165;-81
2024/03/14 01:41:29;;;;;;;;;;;;;;;21.69;39.16;100511.69;103288;1300;62601;-81
2024/03/14 01:43:58;;;;;;;;;;;;;;;21.69;39.01;100511.37;103279;1295;74337;-80
2024/03/14 01:46:24;;;;;;;;;;;;;;;21.69;39.04;100515.66;103468;1295;61445;-80
2024/03/14 01:48:49;;;;;;;;;;;;;;;21.69;39.08;100516.15;103344;1298;61279;-80
2024/03/14 01:51:15;;;;;;;;;;;;;;;21.68;39.15;100517.27;103383;1299;61404;-80
2024/03/14 01:53:40;;;;;;;;;;;;;;;21.68;38.99;100515.50;103166;1300;62103;-80
2024/03/14 01:56:06;;;;;;;;;;;;;;;21.68;38.90;100515.35;103156;1294;61343;-80
2024/03/14 01:58:33;;;;;;;;;;;;;;;21.68;38.86;100519.25;103371;1301;61460;-80
2024/03/14 02:01:00;;;;;;;;;;;;;;;21.68;38.99;100518.73;103164;1295;61395;-80
2024/03/14 02:03:27;;;;;;;;;;;;;;;21.68;38.89;100516.77;103393;1294;74943;-80
2024/03/14 02:06:00;;;;;;;;;;;;;;;21.68;38.92;100516.23;103139;1297;62553;-80
2024/03/14 02:08:27;;;;;;;;;;;;;;;21.69;38.97;100522.29;103135;1294;61871;-80
2024/03/14 02:10:53;;;;;;;;;;;;;;;21.69;39.00;100520.11;102948;1294;463247;-80
2024/03/14 02:13:18;;;;;;;;;;;;;;;21.69;38.96;100519.77;103183;1298;62106;-80
2024/03/14 02:15:44;;;;;;;;;;;;;;;21.68;38.91;100521.23;103204;1295;61625;-80
2024/03/14 02:18:10;;;;;;;;;;;;;;;21.68;38.81;100519.42;103313;1294;61436;-80
2024/03/14 02:20:39;;;;;;;;;;;;;;;21.69;38.83;100520.31;103084;1296;61304;-80
2024/03/14 02:23:06;;;;;;;;;;;;;;;21.69;38.94;100518.90;103030;1294;61362;-79
2024/03/14 02:25:32;;;;;;;;;;;;;;;21.68;38.85;100517.98;103140;1298;61385;-80
2024/03/14 02:27:57;;;;;;;;;;;;;;;21.68;38.83;100519.96;103216;1298;61403;-80
2024/03/14 02:30:23;;;;;;;;;;;;;;;21.68;38.78;100522.15;103316;1296;63385;-80
2024/03/14 02:32:48;;;;;;;;;;;;;;;21.68;38.78;100524.63;103103;1294;61411;-80
2024/03/14 02:35:14;;;;;;;;;;;;;;;21.69;38.73;100524.81;103069;1295;72726;-80
2024/03/14 02:37:40;;;;;;;;;;;;;;;21.69;38.73;100526.95;103175;1295;61914;-80
2024/03/14 02:40:06;;;;;;;;;;;;;;;21.69;38.80;100527.48;103143;1301;61302;-80
2024/03/14 02:42:32;;;;;;;;;;;;;;;21.69;38.75;100529.61;103266;1295;61306;-80
2024/03/14 02:44:58;;;;;;;;;;;;;;;21.69;38.63;100524.96;103087;1298;61281;-80
2024/03/14 02:47:24;;;;;;;;;;;;;;;21.69;38.70;100534.41;103071;1297;61409;-81
2024/03/14 02:49:51;;;;;;;;;;;;;;;21.69;38.68;100533.55;103245;1298;61420;-80
2024/03/14 02:52:16;;;;;;;;;;;;;;;21.69;38.75;100531.23;103079;1294;61372;-80
2024/03/14 02:54:42;;;;;;;;;;;;;;;21.69;38.70;100535.34;103318;1295;61392;-80
2024/03/14 02:57:08;;;;;;;;;;;;;;;21.69;38.75;100537.48;103289;1294;73132;-80
2024/03/14 02:59:33;;;;;;;;;;;;;;;21.69;38.67;100538.38;103110;1294;61368;-78
2024/03/14 03:02:00;;;;;;;;;;;;;;;21.69;38.52;100539.97;103255;1298;61289;-79
2024/03/14 03:04:30;;;;;;;;;;;;;;;21.69;38.61;100537.09;103147;1297;61381;-79
2024/03/14 03:07:00;;;;;;;;;;;;;;;21.69;38.60;100539.77;103081;1295;71151;-79
2024/03/14 03:09:27;;;;;;;;;;;;;;;21.69;38.53;100537.30;103145;1295;74542;-80
2024/03/14 03:11:53;;;;;;;;;;;;;;;21.69;38.71;100538.54;103455;1294;61391;-79
2024/03/14 03:14:18;;;;;;;;;;;;;;;21.70;38.54;100538.67;103259;1300;61351;-80
2024/03/14 03:16:44;;;;;;;;;;;;;;;21.69;38.54;100540.31;103125;1295;61403;-79
2024/03/14 03:19:09;;;;;;;;;;;;;;;21.69;38.45;100538.73;103298;1298;61900;-79
2024/03/14 03:21:38;;;;;;;;;;;;;;;21.69;38.58;100547.30;103164;1298;61422;-79
2024/03/14 03:24:07;;;;;;;;;;;;;;;21.69;38.56;100539.61;103289;1294;61349;-80
2024/03/14 03:26:36;;;;;;;;;;;;;;;21.70;38.61;100546.36;103208;1295;61745;-80
2024/03/14 03:29:02;;;;;;;;;;;;;;;21.70;38.52;100545.29;103033;1300;71430;-79
2024/03/14 03:31:29;;;;;;;;;;;;;;;21.70;38.38;100543.67;103034;1298;74314;-80
2024/03/14 03:33:55;;;;;;;;;;;;;;;21.70;38.44;100544.58;103327;1298;61407;-79
2024/03/14 03:36:23;;;;;;;;;;;;;;;21.70;38.40;100552.27;103088;1295;61324;-79
2024/03/14 03:38:49;;;;;;;;;;;;;;;21.69;38.37;100549.26;103208;1298;72307;-79
2024/03/14 03:41:16;;;;;;;;;;;;;;;21.69;38.35;100551.39;103130;1295;61832;-79
2024/03/14 03:43:43;;;;;;;;;;;;;;;21.70;38.37;100555.30;103485;1299;61408;-79
2024/03/14 03:46:16;;;;;;;;;;;;;;;21.70;38.30;100557.64;105908;1294;59144;-79
2024/03/14 03:48:42;;;;;;;;;;;;;;;21.71;38.48;100561.15;104078;1300;61313;-79
2024/03/14 03:51:08;;;;;;;;;;;;;;;21.71;38.44;100557.95;103106;1298;61428;-81
2024/03/14 03:53:34;;;;;;;;;;;;;;;21.71;38.52;100564.18;103063;1298;61411;-81
2024/03/14 03:56:02;;;;;;;;;;;;;;;21.72;38.48;100566.62;103071;1296;61260;-81
2024/03/14 03:58:30;;;;;;;;;;;;;;;21.72;38.44;100568.58;104127;1296;72547;-79
2024/03/14 04:01:06;;;;;;;;;;;;;;;21.72;38.43;100568.60;103156;1295;74426;-80
2024/03/14 04:03:34;;;;;;;;;;;;;;;21.72;38.33;100568.77;105369;1294;61308;-79
2024/03/14 04:06:02;;;;;;;;;;;;;;;21.72;38.41;100570.16;103141;1295;61408;-79
2024/03/14 04:08:30;;;;;;;;;;;;;;;21.73;38.41;100572.30;103116;1297;72452;-79
2024/03/14 04:10:56;;;;;;;;;;;;;;;21.73;38.27;100574.39;103131;1303;73153;-79
2024/03/14 04:13:22;;;;;;;;;;;;;;;21.73;38.37;100576.20;103054;1295;61531;-80
2024/03/14 04:15:48;;;;;;;;;;;;;;;21.73;38.36;100577.64;103160;1295;61384;-80
2024/03/14 04:18:13;;;;;;;;;;;;;;;21.73;38.23;100583.52;103192;1298;61264;-80
2024/03/14 04:20:39;;;;;;;;;;;;;;;21.72;38.41;100585.38;103163;1295;61419;-80
2024/03/14 04:23:05;;;;;;;;;;;;;;;21.73;38.11;100588.73;103305;1298;61414;-80
2024/03/14 04:25:31;;;;;;;;;;;;;;;21.73;38.19;100588.76;103075;1296;62056;-80
2024/03/14 04:27:57;;;;;;;;;;;;;;;21.73;38.32;100592.89;103723;1297;61296;-80
2024/03/14 04:30:23;;;;;;;;;;;;;;;21.73;38.21;100593.94;103240;1294;61349;-80
2024/03/14 04:32:51;;;;;;;;;;;;;;;21.73;38.10;100595.75;103133;1297;62165;-79
2024/03/14 04:35:17;;;;;;;;;;;;;;;21.73;38.22;100597.16;103249;1295;61285;-80
2024/03/14 04:37:44;;;;;;;;;;;;;;;21.73;38.15;100598.08;104218;1297;61281;-80
2024/03/14 04:40:19;;;;;;;;;;;;;;;21.73;38.30;100602.21;103125;1296;61430;-81
2024/03/14 04:42:44;;;;;;;;;;;;;;;21.72;38.23;100601.69;103773;1300;74559;-82
2024/03/14 04:45:11;;;;;;;;;;;;;;;21.72;38.16;100601.02;103431;1294;61408;-82
2024/03/14 04:47:39;;;;;;;;;;;;;;;21.72;38.09;100605.31;103845;1295;59451;-82
2024/03/14 04:50:28;;;;;;;;;;;;;;;21.71;38.13;100609.64;103779;1296;72478;-80
2024/03/14 04:52:54;;;;;;;;;;;;;;;21.72;38.00;100612.84;103213;1303;61523;-81
2024/03/14 04:55:20;;;;;;;;;;;;;;;21.71;38.15;100616.46;103193;1297;61627;-83
2024/03/14 04:58:00;;;;;;;;;;;;;;;21.71;38.19;100617.56;103822;1297;61356;-80
2024/03/14 05:00:26;;;;;;;;;;;;;;;21.71;38.16;100617.21;103806;1295;61424;-81
2024/03/14 05:02:51;;;;;;;;;;;;;;;21.70;38.15;100622.13;103610;1297;61313;-80
2024/03/14 05:05:17;;;;;;;;;;;;;;;21.71;38.17;100622.42;103794;1298;61309;-80
2024/03/14 05:07:43;;;;;;;;;;;;;;;21.71;38.13;100626.52;103805;1296;61259;-80
2024/03/14 05:10:09;;;;;;;;;;;;;;;21.72;38.27;100626.48;104044;1296;61317;-80
2024/03/14 05:12:35;;;;;;;;;;;;;;;21.72;38.10;100631.45;103299;1299;72199;-80
2024/03/14 05:15:05;;;;;;;;;;;;;;;21.73;38.24;100635.52;103513;1297;61392;-81
2024/03/14 05:17:34;;;;;;;;;;;;;;;21.72;38.23;100637.15;103351;1296;61382;-80
2024/03/14 05:20:00;;;;;;;;;;;;;;;21.71;38.13;100638.14;103253;1296;61391;-81
2024/03/14 05:22:28;;;;;;;;;;;;;;;21.70;38.13;100641.96;103664;1300;61680;-80
2024/03/14 05:24:58;;;;;;;;;;;;;;;21.69;38.13;100642.42;103361;1300;75364;-81
2024/03/14 05:27:27;;;;;;;;;;;;;;;21.68;38.09;100641.08;103412;1297;61174;-81
2024/03/14 05:29:52;;;;;;;;;;;;;;;21.68;38.02;100641.80;103578;1300;61233;-81
2024/03/14 05:32:21;;;;;;;;;;;;;;;21.67;38.00;100648.45;103298;1298;61393;-80
2024/03/14 05:34:50;;;;;;;;;;;;;;;21.68;38.01;100650.23;103719;1300;74427;-81
2024/03/14 05:37:16;;;;;;;;;;;;;;;21.67;37.87;100654.97;103492;1296;61281;-80
2024/03/14 05:39:44;;;;;;;;;;;;;;;21.66;37.93;100655.61;103268;1298;61433;-81
2024/03/14 05:42:13;;;;;;;;;;;;;;;21.63;37.84;100655.81;103536;1300;72611;-83
2024/03/14 05:44:40;;;;;;;;;;;;;;;21.58;37.80;100659.41;104064;1296;74474;-81
2024/03/14 05:47:09;;;;;;;;;;;;;;;21.53;37.66;100660.30;104109;1297;61328;-80
2024/03/14 05:49:35;;;;;;;;;;;;;;;21.49;37.78;100661.45;104102;1297;60148;-80
2024/03/14 05:52:01;;;;;;;;;;;;;;;21.46;37.77;100666.02;104156;1300;61391;-81
2024/03/14 05:54:26;;;;;;;;;;;;;;;21.41;37.72;100667.46;103736;1295;61273;-80
2024/03/14 05:56:52;;;;;;;;;;;;;;;21.36;37.75;100669.41;103885;1296;61300;-80
2024/03/14 05:59:18;;;;;;;;;;;;;;;21.31;37.67;100670.69;103755;1296;60576;-81
2024/03/14 06:01:43;;;;;;;;;;;;;;;21.26;37.67;100680.83;104177;1296;61340;-80
2024/03/14 06:04:10;;;;;;;;;;;;;;;21.23;37.61;100682.16;103831;1297;72220;-80
2024/03/14 06:06:36;;;;;;;;;;;;;;;21.20;37.60;100682.58;103735;1295;74367;-80
2024/03/14 06:09:03;;;;;;;;;;;;;;;21.19;37.59;100683.55;103949;1300;61294;-80
2024/03/14 06:11:31;;;;;;;;;;;;;;;21.17;37.63;100689.21;103817;1296;61331;-80
2024/03/14 06:13:58;;;;;;;;;;;;;;;21.16;37.61;100691.12;105654;1297;72546;-81
2024/03/14 06:16:26;;;;;;;;;;;;;;;21.15;37.60;100691.19;105414;1296;58991;-82
2024/03/14 06:18:53;;;;;;;;;;;;;;;21.16;37.59;100697.37;105414;1297;60268;-81
2024/03/14 06:21:21;;;;;;;;;;;;;;;21.17;37.72;100695.84;105429;1299;58453;-81
2024/03/14 06:23:50;;;;;;;;;;;;;;;21.19;37.60;100699.84;103643;1297;72591;-80
2024/03/14 06:26:16;;;;;;;;;;;;;;;21.20;37.72;100704.01;103586;1296;74850;-80
2024/03/14 06:28:42;;;;;;;;;;;;;;;21.23;37.63;100710.30;103655;1298;61387;-80
2024/03/14 06:31:08;;;;;;;;;;;;;;;21.24;37.53;100709.50;103588;1297;61727;-81
2024/03/14 06:33:33;;;;;;;;;;;;;;;21.26;37.42;100711.63;103726;1296;61487;-80
2024/03/14 06:35:59;;;;;;;;;;;;;;;21.28;37.48;100712.80;103539;1298;61557;-80
2024/03/14 06:38:25;;;;;;;;;;;;;;;21.30;37.34;100717.47;103743;1297;61502;-80
2024/03/14 06:40:54;;;;;;;;;;;;;;;21.32;37.47;100720.51;104880;1297;59929;-81
2024/03/14 06:43:22;;;;;;;;;;;;;;;21.34;37.26;100725.03;104251;1296;61378;-82
2024/03/14 06:45:50;;;;;;;;;;;;;;;21.33;37.32;100729.96;104051;1295;71351;-82
2024/03/14 06:48:16;;;;;;;;;;;;;;;21.32;37.46;100736.16;104175;1296;74717;-81
2024/03/14 06:50:42;;;;;;;;;;;;;;;21.32;37.52;100741.48;104034;1296;61373;-80
2024/03/14 06:53:16;;;;;;;;;;;;;;;21.32;37.61;100742.58;104067;1297;60113;-80
2024/03/14 06:55:42;;;;;;;;;;;;;;;21.31;37.59;100740.67;104246;1300;72255;-80
2024/03/14 06:58:08;;;;;;;;;;;;;;;21.32;37.65;100746.17;104428;1297;60000;-80
2024/03/14 07:00:34;;;;;;;;;;;;;;;21.32;37.44;100750.80;104007;1297;61402;-79
2024/03/14 07:03:01;;;;;;;;;;;;;;;21.32;37.65;100750.41;103794;1297;61341;-80
2024/03/14 07:05:28;;;;;;;;;;;;;;;21.35;37.76;100753.27;104004;1296;61354;-80
2024/03/14 07:07:54;;;;;;;;;;;;;;;21.36;37.61;100756.77;103919;1297;61293;-80
2024/03/14 07:10:21;;;;;;;;;;;;;;;21.38;37.69;100762.70;103677;1297;61410;-80
2024/03/14 07:12:47;;;;;;;;;;;;;;;21.40;37.62;100763.66;103506;1297;61547;-80
2024/03/14 07:15:13;;;;;;;;;;;;;;;21.41;37.65;100762.30;103444;1298;61310;-80
2024/03/14 07:17:40;;;;;;;;;;;;;;;21.43;37.60;100764.31;103543;1299;61403;-80
2024/03/14 07:20:16;;;;;;;;;;;;;;;21.44;37.56;100764.59;103456;1302;61340;-80
2024/03/14 07:22:45;;;;;;;;;;;;;;;21.46;37.45;100764.10;105453;1296;60104;-80
2024/03/14 07:25:16;;;;;;;;;;;;;;;21.48;37.61;100766.86;105516;1297;71552;-80
2024/03/14 07:27:43;;;;;;;;;;;;;;;21.49;37.63;100767.44;105530;1296;74791;-80
2024/03/14 07:30:16;;;;;;;;;;;;;;;21.52;37.55;100771.75;105489;1296;58792;-81
2024/03/14 07:32:43;;;;;;;;;;;;;;;21.53;37.59;100770.05;105635;1295;58921;-80
2024/03/14 07:35:12;;;;;;;;;;;;;;;21.55;37.72;100771.89;105659;1296;58932;-80
2024/03/14 07:37:37;;;;;;;;;;;;;;;21.57;37.64;100778.33;105641;1297;74308;-80
2024/03/14 07:40:11;;;;;;;;;;;;;;;21.59;37.58;100779.10;105503;1296;59038;-80
2024/03/14 07:42:39;;;;;;;;;;;;;;;21.61;37.68;100779.85;105609;1297;60103;-80
2024/03/14 07:45:08;;;;;;;;;;;;;;;21.62;37.75;100781.92;105598;1297;72583;-80
2024/03/14 07:47:35;;;;;;;;;;;;;;;21.64;37.74;100786.83;105425;1297;74699;-80
2024/03/14 07:50:01;;;;;;;;;;;;;;;21.66;37.82;100787.21;105501;1296;59840;-80
2024/03/14 07:52:26;;;;;;;;;;;;;;;21.67;37.84;100787.16;105710;1297;59143;-82
2024/03/14 07:54:53;;;;;;;;;;;;;;;21.67;37.77;100791.54;105716;1296;59499;-80
2024/03/14 07:57:20;;;;;;;;;;;;;;;21.68;37.85;100790.44;105420;1297;58972;-80
2024/03/14 07:59:46;;;;;;;;;;;;;;;21.69;37.90;100793.27;105558;1296;58820;-80
2024/03/14 08:02:12;;;;;;;;;;;;;;;21.70;37.88;100794.77;105682;1296;58707;-80
2024/03/14 08:04:47;;;;;;;;;;;;;;;21.71;37.96;100796.30;105454;1296;58824;-80
2024/03/14 08:07:17;;;;;;;;;;;;;;;21.72;38.03;100795.90;105296;1298;73479;-81
2024/03/14 08:09:47;;;;;;;;;;;;;;;21.72;38.07;100797.00;105469;1296;59756;-80
2024/03/14 08:12:13;;;;;;;;;;;;;;;21.72;37.94;100793.58;105626;1296;59983;-80
2024/03/14 08:14:43;;;;;;;;;;;;;;;21.73;37.96;100797.80;105647;1295;58386;-80
2024/03/14 08:17:13;;;;;;;;;;;;;;;21.73;37.87;100799.34;105587;1296;74509;-81
2024/03/14 08:19:45;;;;;;;;;;;;;;;21.75;37.88;100805.89;105608;1297;60052;-80
2024/03/14 08:22:10;;;;;;;;;;;;;;;21.75;37.77;100808.71;105635;1297;59187;-81
2024/03/14 08:24:42;;;;;;;;;;;;;;;21.76;37.83;100809.17;105481;1297;59247;-80
2024/03/14 08:27:09;;;;;;;;;;;;;;;21.77;37.74;100810.75;105479;1297;75600;-80
2024/03/14 08:29:36;;;;;;;;;;;;;;;21.79;37.67;100815.10;105453;1297;60126;-81
2024/03/14 08:32:03;;;;;;;;;;;;;;;21.79;37.69;100815.42;105447;1298;59948;-80
2024/03/14 08:34:29;;;;;;;;;;;;;;;21.80;37.67;100819.14;105658;1295;73447;-80
2024/03/14 08:36:58;;;;;;;;;;;;;;;21.81;37.77;100820.13;105662;1297;59149;-80
2024/03/14 08:39:42;;;;;;;;;;;;;;;21.82;37.74;100822.40;104614;1297;60333;-80
2024/03/14 08:42:08;;;;;;;;;;;;;;;21.83;37.84;100820.38;103847;1296;61446;-80
2024/03/14 08:44:33;;;;;;;;;;;;;;;21.83;37.85;100826.45;103907;1296;61247;-80
2024/03/14 08:46:59;;;;;;;;;;;;;;;21.83;37.90;100825.39;103748;1297;61316;-81
2024/03/14 08:49:24;;;;;;;;;;;;;;;21.82;37.61;100829.70;103680;1297;59310;-79
2024/03/14 08:51:50;;;;;;;;;;;;;;;21.82;37.74;100826.14;103590;1296;61292;-80
2024/03/14 08:56:47;;;;;;;;;;;;;;;21.81;37.82;100829.09;103969;1296;72638;-79
2024/03/14 08:59:13;;;;;;;;;;;;;;;21.79;37.85;100830.16;103959;1296;61319;-80
2024/03/14 09:01:44;;;;;;;;;;;;;;;21.75;37.65;100831.30;104012;1296;61309;-82
2024/03/14 09:04:14;;;;;;;;;;;;;;;21.72;37.87;100836.17;103768;1297;61322;-80
2024/03/14 09:06:39;;;;;;;;;;;;;;;21.71;37.96;100834.29;103714;1297;71470;-81
2024/03/14 09:09:23;;;;;;;;;;;;;;;21.71;37.88;100839.14;103654;1297;59678;-81
2024/03/14 09:11:49;;;;;;;;;;;;;;;21.71;37.85;100837.88;105426;1297;59863;-82
2024/03/14 09:14:15;;;;;;;;;;;;;;;21.71;37.85;100837.50;105506;1297;58463;-81
2024/03/14 09:16:42;;;;;;;;;;;;;;;21.72;37.86;100835.84;105568;1297;59475;-80
2024/03/14 09:19:07;;;;;;;;;;;;;;;21.72;37.82;100837.77;105445;1297;59686;-79
2024/03/14 09:21:33;;;;;;;;;;;;;;;21.73;37.74;100836.99;105567;1297;59454;-79
2024/03/14 09:23:59;;;;;;;;;;;;;;;21.74;37.85;100840.52;105625;1297;59700;-81
2024/03/14 09:26:25;;;;;;;;;;;;;;;21.75;37.85;100838.13;105489;1298;59610;-80
2024/03/14 09:28:51;;;;;;;;;;;;;;;21.78;38.23;100837.21;105420;1297;58840;-80
2024/03/14 09:31:17;;;;;;;;;;;;;;;21.82;38.61;100835.82;105408;1297;59471;-79
2024/03/14 09:33:42;;;;;;;;;;;;;;;21.84;38.65;100839.77;105365;1297;59679;-80
2024/03/14 09:36:13;;;;;;;;;;;;;;;21.85;38.60;100841.16;105344;1297;58729;-82
2024/03/14 09:38:39;;;;;;;;;;;;;;;21.84;38.59;100837.31;105249;1297;72510;-81
2024/03/14 09:41:05;;;;;;;;;;;;;;;21.84;38.60;100841.07;105111;1297;73709;-81
2024/03/14 09:43:30;;;;;;;;;;;;;;;21.83;38.51;100840.55;105205;1297;58914;-80
2024/03/14 09:45:56;;;;;;;;;;;;;;;21.84;38.56;100841.75;105262;1297;58985;-81
2024/03/14 09:48:23;;;;;;;;;;;;;;;21.84;38.42;100846.23;105206;1303;59294;-81
2024/03/14 09:50:51;;;;;;;;;;;;;;;21.80;38.43;100844.55;105387;1297;59772;-80
2024/03/14 09:53:19;;;;;;;;;;;;;;;21.63;38.10;100850.41;104929;1297;61274;-81
2024/03/14 09:55:46;;;;;;;;;;;;;;;21.45;37.98;100851.90;104224;1297;61301;-79
2024/03/14 09:58:14;;;;;;;;;;;;;;;21.23;37.61;100853.83;104232;1297;72626;-79
2024/03/14 10:00:43;;;;;;;;;;;;;;;20.92;37.80;100853.45;104195;1297;73511;-82
2024/03/14 10:03:08;;;;;;;;;;;;;;;20.54;37.81;100850.66;104460;1297;59923;-81
2024/03/14 10:05:35;;;;;;;;;;;;;;;20.38;38.00;100851.43;104467;1297;59701;-81
2024/03/14 10:08:02;;;;;;;;;;;;;;;20.34;37.95;100854.88;104770;1297;59392;-79
2024/03/14 10:10:33;;;;;;;;;;;;;;;20.35;38.14;100854.79;104590;1297;73280;-83
2024/03/14 10:12:59;;;;;;;;;;;;;;;20.35;38.04;100856.05;104637;1299;60467;-81
2024/03/14 10:15:27;;;;;;;;;;;;;;;20.39;38.04;100857.06;104850;1297;59264;-80
2024/03/14 10:17:55;;;;;;;;;;;;;;;20.45;38.08;100858.98;103714;1298;72326;-81
2024/03/14 10:20:21;;;;;;;;;;;;;;;20.52;38.01;100862.98;103638;1305;74495;-81
2024/03/14 10:22:51;;;;;;;;;;;;;;;20.61;37.87;100864.33;103618;1297;61314;-82
2024/03/14 10:25:17;;;;;;;;;;;;;;;20.69;37.89;100863.99;104437;1299;61285;-80
2024/03/14 10:27:47;;;;;;;;;;;;;;;20.76;37.93;100864.59;104242;1297;61285;-81
2024/03/14 10:30:14;;;;;;;;;;;;;;;20.85;37.82;100866.34;104397;1299;74540;-81
2024/03/14 10:32:40;;;;;;;;;;;;;;;20.92;37.75;100872.39;104144;1297;59436;-82
2024/03/14 10:35:09;;;;;;;;;;;;;;;20.99;37.79;100873.57;103979;1299;61423;-81
2024/03/14 10:37:39;;;;;;;;;;;;;;;21.05;37.90;100875.45;104626;1298;72415;-81
2024/03/14 10:40:28;;;;;;;;;;;;;;;21.12;37.97;100871.26;104135;1299;74540;-81
2024/03/14 10:42:54;;;;;;;;;;;;;;;21.18;37.88;100871.54;104142;1298;61189;-79
2024/03/14 10:45:20;;;;;;;;;;;;;;;21.23;38.09;100870.97;103534;1298;61403;-79
2024/03/14 10:47:46;;;;;;;;;;;;;;;21.27;37.88;100871.27;103267;1297;61292;-79
2024/03/14 10:50:19;;;;;;;;;;;;;;;21.31;37.80;100873.87;103434;1297;61422;-81
2024/03/14 10:52:51;;;;;;;;;;;;;;;21.33;37.85;100873.02;104752;1297;59983;-81
2024/03/14 10:55:17;;;;;;;;;;;;;;;21.35;37.97;100873.05;104642;1297;60216;-84
2024/03/14 10:57:43;;;;;;;;;;;;;;;21.37;37.83;100871.80;103691;1300;60029;-81
2024/03/14 11:00:14;;;;;;;;;;;;;;;21.38;37.95;100874.57;103835;1297;61317;-82
2024/03/14 11:02:42;;;;;;;;;;;;;;;21.38;37.95;100876.00;104185;1297;61402;-81
2024/03/14 11:05:11;;;;;;;;;;;;;;;21.33;37.85;100874.75;104404;1297;60062;-81
2024/03/14 11:07:37;;;;;;;;;;;;;;;21.19;37.62;100873.11;105545;1297;72811;-82
2024/03/14 11:10:08;;;;;;;;;;;;;;;21.03;37.55;100876.50;105262;1300;74339;-83
2024/03/14 11:12:34;;;;;;;;;;;;;;;20.70;37.24;100874.30;105412;1297;59805;-82
2024/03/14 11:15:03;;;;;;;;;;;;;;;20.48;37.52;100870.25;104215;1297;61153;-81
2024/03/14 11:17:29;;;;;;;;;;;;;;;20.51;37.74;100870.70;104210;1297;72347;-81
2024/03/14 11:19:56;;;;;;;;;;;;;;;20.58;37.65;100872.05;104276;1297;61231;-83
2024/03/14 11:22:21;;;;;;;;;;;;;;;20.67;37.55;100871.84;103603;1297;61520;-80
2024/03/14 11:24:48;;;;;;;;;;;;;;;20.74;37.64;100872.79;103561;1297;61309;-81
2024/03/14 11:27:14;;;;;;;;;;;;;;;20.80;37.56;100872.55;103556;1303;61831;-81
2024/03/14 11:29:39;;;;;;;;;;;;;;;20.88;37.44;100875.58;103727;1299;61442;-81
2024/03/14 11:32:11;;;;;;;;;;;;;;;20.95;37.64;100876.73;103511;1297;61367;-80
2024/03/14 11:34:37;;;;;;;;;;;;;;;21.01;37.56;100872.89;103676;1297;61428;-81
2024/03/14 11:37:03;;;;;;;;;;;;;;;21.06;37.57;100873.41;103479;1303;61662;-81
2024/03/14 11:39:28;;;;;;;;;;;;;;;21.11;37.64;100873.60;103436;1297;61319;-80
2024/03/14 11:42:12;;;;;;;;;;;;;;;21.16;37.59;100871.33;103534;1297;61345;-79
2024/03/14 11:44:41;;;;;;;;;;;;;;;21.20;37.56;100874.95;103516;1298;60256;-79
2024/03/14 11:47:06;;;;;;;;;;;;;;;21.24;37.49;100875.36;103472;1297;72513;-81
2024/03/14 11:49:35;;;;;;;;;;;;;;;21.28;37.63;100876.92;103739;1297;61225;-81
2024/03/14 11:52:01;;;;;;;;;;;;;;;21.31;37.66;100877.98;103878;1297;62574;-81
2024/03/14 11:54:27;;;;;;;;;;;;;;;21.33;37.67;100884.27;103637;1297;61370;-81
2024/03/14 11:56:53;;;;;;;;;;;;;;;21.34;37.60;100887.38;103806;1298;61303;-81
2024/03/14 11:59:25;;;;;;;;;;;;;;;21.31;37.64;100890.69;103848;1296;61336;-81
2024/03/14 12:01:54;;;;;;;;;;;;;;;21.23;37.60;100890.48;104290;1297;60785;-81
2024/03/14 12:04:20;;;;;;;;;;;;;;;21.04;37.23;100889.31;104669;1298;61214;-82
2024/03/14 12:06:47;;;;;;;;;;;;;;;20.85;37.29;100888.31;104071;1299;61251;-79
2024/03/14 12:09:21;;;;;;;;;;;;;;;20.70;37.35;100888.27;104057;1300;73427;-81
2024/03/14 12:11:50;;;;;;;;;;;;;;;20.57;37.44;100886.61;105383;1297;60923;-81
2024/03/14 12:14:18;;;;;;;;;;;;;;;20.50;37.58;100889.54;105404;1298;60418;-80
2024/03/14 12:16:45;;;;;;;;;;;;;;;20.46;37.61;100882.73;105274;1297;72572;-80
2024/03/14 12:19:12;;;;;;;;;;;;;;;20.50;37.69;100891.92;105129;1297;74275;-80
2024/03/14 12:21:41;;;;;;;;;;;;;;;20.57;37.72;100884.63;105128;1297;60064;-80
2024/03/14 12:24:12;;;;;;;;;;;;;;;20.65;37.89;100888.38;105305;1297;59511;-82
2024/03/14 12:26:38;;;;;;;;;;;;;;;20.73;37.89;100893.05;105091;1297;71720;-81
2024/03/14 12:29:05;;;;;;;;;;;;;;;20.79;37.94;100890.35;105313;1297;74828;-81